Libertyville, Alabama
Current Conditions -  °F | °C
As of 9:56 AM on Tuesday 21 Oct 2014 (Local Time) from K79J Reporting Station
Clear Clear  
Wind Chill: 75°   Ceiling: Unl
Heat Index: 75°   Visibility: 10mi
Dew Point: 52°   Wind: 5mph
Humidity: 44%   Direction: 70°ENE
Pressure: 30.06"   Gusts: NA
Location:  31.1836°N, 86.5372°W
Report Text: K79J 211456Z AUTO 07004KT 10SM CLR 24/11 A3006 RMK AO2 SLP173 T02390111 50009
Loading
Personal Weather Stations






























Interactive Weather Map
Tropical Storm Tracking
New forecast layout! Learn more

10-Day Weather Forecast

Advertisements
Track Severe Weather on mobile